| time (UTC) | temp C | wind direction | speed KPH | gust KPH | rain 1hr cm | rain 24hr cm | rain mn cm | humidity % | barometer mb |
| 20260506110043 | 22 | 161 | 0.0 | 0.0 | 0.00 | 0.00 | 0.00 | 96 | 1008.0 |
| 20260506104546 | 22 | 161 | 0.0 | 1.6 | 0.00 | 0.00 | 0.00 | 96 | 1007.9 |
| 20260506103041 | 22 | 161 | 0.0 | 0.0 | 0.00 | 0.00 | 0.00 | 96 | 1007.8 |
| 20260506101539 | 22 | 161 | 0.0 | 0.0 | 0.00 | 0.00 | 0.00 | 95 | 1007.7 |
| 20260506100038 | 22 | 161 | 0.0 | 0.0 | 0.00 | 0.00 | 0.00 | 95 | 1007.7 |
| 20260506094536 | 22 | 161 | 0.0 | 3.2 | 0.00 | 0.00 | 0.00 | 95 | 1007.6 |
| 20260506093040 | 22 | 161 | 0.0 | 3.2 | 0.00 | 0.00 | 0.00 | 95 | 1007.6 |
| 20260506091536 | 22 | 162 | 0.0 | 3.2 | 0.00 | 0.00 | 0.00 | 95 | 1007.6 |
| 20260506090033 | 22 | 150 | 3.2 | 8.0 | 0.00 | 0.00 | 0.00 | 95 | 1007.4 |
| 20260506084636 | 22 | 170 | 1.6 | 6.4 | 0.00 | 0.00 | 0.00 | 94 | 1007.6 |
| 20260506083036 | 23 | 161 | 0.0 | 4.8 | 0.00 | 0.00 | 0.00 | 94 | 1007.7 |
| 20260506081532 | 23 | 155 | 0.0 | 0.0 | 0.00 | 0.00 | 0.00 | 94 | 1007.7 |
| 20260506073029 | 23 | 159 | 1.6 | 8.0 | 0.00 | 0.00 | 0.00 | 93 | 1007.8 |
| 20260506071529 | 23 | 170 | 4.8 | 11.3 | 0.00 | 0.00 | 0.00 | 92 | 1007.8 |
| 20260506061526 | 24 | 158 | 9.7 | 16.1 | 0.00 | 0.00 | 0.00 | 90 | 1007.5 |
| 20260506044511 | 25 | 179 | 9.7 | 16.1 | 0.00 | 0.00 | 0.00 | 88 | 1007.5 |
| 20260506043007 | 25 | 198 | 11.3 | 16.1 | 0.00 | 0.00 | 0.00 | 88 | 1007.5 |
| 20260506041507 | 25 | 153 | 9.7 | 19.3 | 0.00 | 0.00 | 0.00 | 88 | 1007.3 |
| 20260506040008 | 25 | 168 | 12.9 | 17.7 | 0.00 | 0.00 | 0.00 | 88 | 1007.1 |
| 20260506034506 | 25 | 167 | 11.3 | 19.3 | 0.00 | 0.00 | 0.00 | 87 | 1007.1 |
| 20260506033007 | 25 | 157 | 9.7 | 17.7 | 0.00 | 0.00 | 0.00 | 87 | 1006.9 |
| 20260506031507 | 25 | 155 | 8.0 | 17.7 | 0.00 | 0.00 | 0.00 | 87 | 1006.7 |
| 20260506030005 | 25 | 165 | 11.3 | 16.1 | 0.00 | 0.00 | 0.00 | 86 | 1006.6 |
| 20260506024502 | 25 | 183 | 11.3 | 16.1 | 0.00 | 0.00 | 0.00 | 86 | 1006.4 |
| 20260506023001 | 25 | 170 | 8.0 | 14.5 | 0.00 | 0.00 | 0.00 | 86 | 1006.3 |
| 20260506021502 | 25 | 176 | 8.0 | 14.5 | 0.00 | 0.00 | 0.00 | 86 | 1006.1 |
| 20260506020059 | 25 | 175 | 4.8 | 8.0 | 0.00 | 0.00 | 0.00 | 85 | 1006.2 |
| 20260506014559 | 25 | 190 | 4.8 | 14.5 | 0.00 | 0.00 | 0.00 | 85 | 1006.1 |
| 20260506013103 | 25 | 186 | 8.0 | 17.7 | 0.00 | 0.00 | 0.00 | 84 | 1005.8 |
| 20260506011623 | 26 | 173 | 8.0 | 14.5 | 0.00 | 0.00 | 0.00 | 83 | 1005.4 |
| 20260506010116 | 26 | 183 | 8.0 | 16.1 | 0.00 | 0.00 | 0.00 | 82 | 1005.1 |
| 20260506004556 | 26 | 180 | 8.0 | 17.7 | 0.00 | 0.00 | 0.00 | 81 | 1004.7 |
| 20260506003057 | 27 | 179 | 6.4 | 11.3 | 0.00 | 0.00 | 0.00 | 80 | 1004.9 |
| 20260506001655 | 27 | 175 | 11.3 | 20.9 | 0.00 | 0.00 | 0.00 | 79 | 1004.8 |
| 20260506000059 | 27 | 190 | 9.7 | 16.1 | 0.00 | 0.00 | 0.00 | 79 | 1004.7 |
| 20260505233050 | 28 | 202 | 11.3 | 22.5 | 0.00 | 0.00 | 0.00 | 78 | 1004.7 |
| 20260505231554 | 28 | 169 | 14.5 | 25.7 | 0.00 | 0.00 | 0.00 | 77 | 1004.6 |
| 20260505230052 | 28 | 194 | 17.7 | 29.0 | 0.00 | 0.00 | 0.00 | 75 | 1004.5 |
| 20260505224549 | 28 | 177 | 16.1 | 29.0 | 0.00 | 0.00 | 0.00 | 74 | 1004.4 |
| 20260505223047 | 28 | 205 | 12.9 | 24.1 | 0.00 | 0.00 | 0.00 | 75 | 1004.6 |
| 20260505221557 | 29 | 194 | 14.5 | 24.1 | 0.00 | 0.00 | 0.00 | 74 | 1004.6 |
| 20260505220056 | 29 | 155 | 17.7 | 30.6 | 0.00 | 0.00 | 0.00 | 73 | 1004.7 |
| 20260505214551 | 30 | 197 | 14.5 | 29.0 | 0.00 | 0.00 | 0.00 | 75 | 1004.7 |
| 20260505213043 | 29 | 200 | 17.7 | 32.2 | 0.00 | 0.00 | 0.00 | 73 | 1004.9 |
| 20260505211542 | 29 | 200 | 20.9 | 35.4 | 0.00 | 0.00 | 0.00 | 72 | 1004.9 |
| 20260505210046 | 29 | 189 | 17.7 | 33.8 | 0.00 | 0.00 | 0.00 | 74 | 1005.2 |
| 20260505204538 | 29 | 205 | 17.7 | 35.4 | 0.00 | 0.00 | 0.00 | 72 | 1005.5 |
| 20260505203034 | 29 | 196 | 20.9 | 35.4 | 0.00 | 0.00 | 0.00 | 74 | 1005.7 |
| 20260505201536 | 28 | 200 | 22.5 | 35.4 | 0.00 | 0.00 | 0.00 | 75 | 1005.8 |
| 20260505200030 | 28 | 202 | 20.9 | 41.8 | 0.00 | 0.00 | 0.00 | 74 | 1006.1 |
| 20260505194526 | 28 | 222 | 16.1 | 32.2 | 0.00 | 0.00 | 0.00 | 79 | 1006.4 |
| 20260505193034 | 28 | 204 | 16.1 | 30.6 | 0.00 | 0.00 | 0.00 | 79 | 1006.4 |
| 20260505191525 | 28 | 210 | 17.7 | 32.2 | 0.00 | 0.00 | 0.00 | 77 | 1006.6 |
| 20260505190027 | 28 | 203 | 24.1 | 33.8 | 0.00 | 0.00 | 0.00 | 78 | 1006.7 |
| 20260505184521 | 27 | 199 | 16.1 | 29.0 | 0.00 | 0.00 | 0.00 | 79 | 1006.8 |
| 20260505183118 | 27 | 180 | 12.9 | 25.7 | 0.00 | 0.00 | 0.00 | 81 | 1006.9 |
| 20260505181516 | 27 | 205 | 16.1 | 30.6 | 0.00 | 0.00 | 0.00 | 82 | 1007.2 |
| 20260505180012 | 26 | 217 | 17.7 | 33.8 | 0.00 | 0.00 | 0.00 | 81 | 1007.1 |
| 20260505174509 | 26 | 231 | 20.9 | 33.8 | 0.00 | 0.00 | 0.00 | 83 | 1007.3 |
| 20260505173007 | 26 | 230 | 16.1 | 30.6 | 0.00 | 0.00 | 0.00 | 83 | 1007.3 |
| 20260505171508 | 26 | 229 | 17.7 | 30.6 | 0.00 | 0.00 | 0.00 | 84 | 1007.5 |
| 20260505170003 | 25 | 208 | 16.1 | 33.8 | 0.00 | 0.00 | 0.00 | 84 | 1007.6 |
| 20260505164604 | 25 | 194 | 14.5 | 30.6 | 0.00 | 0.00 | 0.00 | 86 | 1007.6 |
| 20260505163057 | 24 | 190 | 17.7 | 32.2 | 0.00 | 0.00 | 0.00 | 87 | 1007.7 |
| 20260505161557 | 23 | 205 | 0.0 | 9.7 | 0.00 | 0.00 | 0.00 | 88 | 1007.7 |
| 20260505153050 | 23 | 191 | 0.0 | 6.4 | 0.00 | 0.00 | 0.00 | 89 | 1007.7 |
| 20260505151539 | 23 | 210 | 0.0 | 6.4 | 0.00 | 0.00 | 0.00 | 90 | 1007.8 |
| 20260505124505 | 21 | 194 | 0.0 | 1.6 | 0.00 | 0.00 | 0.00 | 92 | 1007.2 |
| 20260505123006 | 21 | 196 | 0.0 | 1.6 | 0.00 | 0.00 | 0.00 | 93 | 1007.3 |
| 20260505121502 | 21 | 197 | 0.0 | 3.2 | 0.00 | 0.00 | 0.00 | 92 | 1007.2 |
| 20260505120109 | 21 | 157 | 0.0 | 3.2 | 0.00 | 0.00 | 0.00 | 93 | 1006.8 |
| 20260505114558 | 21 | 198 | 0.0 | 1.6 | 0.00 | 0.00 | 0.00 | 93 | 1006.5 |
| 20260505113114 | 20 | 190 | 0.0 | 6.4 | 0.00 | 0.00 | 0.00 | 93 | 1006.5 |
| 20260505111556 | 20 | 194 | 0.0 | 3.2 | 0.00 | 0.00 | 0.00 | 93 | 1006.8 |